Time;durP1;ratioP1;P1;durP2;ratioP2;P2;SDS_P1;SDS_P2;PMS_P1;PMS_P2;Temp;Humidity;BMP_temperature;BMP_pressure;BME280_temperature;BME280_humidity;BME280_pressure;Samples;Min_cycle;Max_cycle;Signal;HPM_P1;HPM_P2
2023/09/22 00:00:00;;;;;;;2.33;1.30;;;18.00;99.90;;;;;;4993574;28;20501;-78
2023/09/22 00:02:26;;;;;;;2.47;1.50;;;18.00;99.90;;;;;;5032675;28;20459;-77
2023/09/22 00:04:52;;;;;;;2.40;1.50;;;17.90;99.90;;;;;;5016930;28;20427;-77
2023/09/22 00:07:18;;;;;;;2.90;1.50;;;17.90;99.90;;;;;;5014619;28;20426;-77
2023/09/22 00:09:43;;;;;;;2.30;1.53;;;17.90;99.90;;;;;;5022368;28;20264;-78
2023/09/22 00:12:09;;;;;;;3.20;1.40;;;17.80;99.90;;;;;;5017540;28;20343;-77
2023/09/22 00:14:38;;;;;;;2.53;1.40;;;17.80;99.90;;;;;;5017222;28;20226;-77
2023/09/22 00:17:03;;;;;;;2.20;1.50;;;17.80;99.90;;;;;;5019719;28;20231;-76
2023/09/22 00:19:29;;;;;;;2.60;1.57;;;17.80;99.90;;;;;;5034208;28;20427;-77
2023/09/22 00:21:55;;;;;;;3.03;1.60;;;17.80;99.90;;;;;;5017619;28;20698;-77
2023/09/22 00:24:22;;;;;;;2.97;1.87;;;17.90;99.90;;;;;;5016568;28;20180;-77
2023/09/22 00:26:48;;;;;;;3.40;1.50;;;17.90;99.90;;;;;;5021405;28;20506;-78
2023/09/22 00:29:13;;;;;;;2.30;1.40;;;17.90;99.90;;;;;;5015861;28;20494;-77
2023/09/22 00:31:39;;;;;;;2.37;1.40;;;17.70;99.90;;;;;;5001154;28;20176;-77
2023/09/22 00:34:04;;;;;;;2.47;1.40;;;17.80;99.90;;;;;;5019845;28;20224;-77
2023/09/22 00:36:32;;;;;;;2.77;1.67;;;17.80;99.90;;;;;;5005477;28;20181;-77
2023/09/22 00:38:58;;;;;;;1.97;1.40;;;17.70;99.90;;;;;;5000502;28;20290;-77
2023/09/22 00:41:24;;;;;;;2.70;1.60;;;17.80;99.90;;;;;;5017623;28;20471;-78
2023/09/22 00:43:50;;;;;;;3.57;2.03;;;17.80;99.90;;;;;;5012148;28;20963;-78
2023/09/22 00:46:22;;;;;;;3.13;2.43;;;17.90;99.90;;;;;;5022355;28;20181;-79
2023/09/22 00:48:48;;;;;;;2.90;1.57;;;17.90;99.90;;;;;;5015857;28;20423;-77
2023/09/22 00:51:19;;;;;;;2.53;1.30;;;17.80;99.90;;;;;;5001533;28;20431;-76
2023/09/22 00:53:47;;;;;;;2.50;1.40;;;17.90;99.90;;;;;;5018734;28;20440;-77
2023/09/22 00:56:15;;;;;;;2.20;1.40;;;17.90;99.90;;;;;;5000112;28;20431;-77
2023/09/22 00:58:41;;;;;;;15.77;2.43;;;17.90;99.90;;;;;;5016202;28;20430;-77
2023/09/22 01:01:07;;;;;;;2.47;1.30;;;18.00;99.90;;;;;;5016444;28;20459;-77
2023/09/22 01:03:32;;;;;;;2.83;1.50;;;17.90;99.90;;;;;;5029613;28;20474;-77
2023/09/22 01:05:58;;;;;;;3.10;1.50;;;17.90;99.90;;;;;;5021360;28;20565;-77
2023/09/22 01:08:24;;;;;;;2.33;1.43;;;17.80;99.90;;;;;;5012521;28;20180;-78
2023/09/22 01:10:49;;;;;;;3.20;1.40;;;17.80;99.90;;;;;;5037125;28;20712;-78
2023/09/22 01:13:15;;;;;;;3.10;1.53;;;17.70;99.90;;;;;;5017749;28;20208;-77
2023/09/22 01:15:42;;;;;;;2.50;1.70;;;17.80;99.90;;;;;;4996009;28;20248;-77
2023/09/22 01:18:10;;;;;;;1.97;1.30;;;17.80;99.90;;;;;;5014025;28;20204;-79
2023/09/22 01:20:42;;;;;;;3.20;1.50;;;17.70;99.90;;;;;;5018326;28;20470;-77
2023/09/22 01:23:08;;;;;;;2.30;1.70;;;17.80;99.90;;;;;;5011312;28;20431;-77
2023/09/22 01:25:33;;;;;;;2.00;1.40;;;17.90;99.90;;;;;;5015859;28;20435;-77
2023/09/22 01:27:59;;;;;;;2.47;1.40;;;17.90;99.90;;;;;;4995542;28;21012;-78
2023/09/22 01:30:25;;;;;;;2.83;1.70;;;17.80;99.90;;;;;;5016380;28;20621;-78
2023/09/22 01:32:50;;;;;;;2.60;1.60;;;17.80;99.90;;;;;;5017979;28;20216;-78
2023/09/22 01:35:16;;;;;;;4.00;1.43;;;17.70;99.90;;;;;;5003776;28;20184;-77
2023/09/22 01:37:55;;;;;;;2.00;1.50;;;17.70;99.90;;;;;;5020938;28;20198;-77
2023/09/22 01:40:20;;;;;;;6.63;1.53;;;17.70;99.90;;;;;;5000435;28;20219;-77
2023/09/22 01:42:46;;;;;;;2.93;1.63;;;17.80;99.90;;;;;;5016398;28;20947;-76
2023/09/22 01:45:12;;;;;;;3.17;1.93;;;17.80;99.90;;;;;;5019081;28;20177;-76
2023/09/22 01:47:40;;;;;;;2.30;1.60;;;17.80;99.90;;;;;;5005873;28;20172;-76
2023/09/22 01:50:09;;;;;;;2.57;1.70;;;17.80;99.90;;;;;;4997125;28;20184;-76
2023/09/22 01:52:35;;;;;;;6.50;1.63;;;17.80;99.90;;;;;;5020196;28;20436;-76
2023/09/22 01:55:01;;;;;;;2.07;1.30;;;17.70;99.90;;;;;;5024126;28;21045;-77
2023/09/22 01:57:26;;;;;;;3.03;1.87;;;17.80;99.90;;;;;;5020294;28;20455;-76
2023/09/22 01:59:52;;;;;;;2.70;1.40;;;17.80;99.90;;;;;;5027697;28;20183;-76
2023/09/22 02:02:18;;;;;;;2.20;1.23;;;17.80;99.90;;;;;;5026008;28;20315;-77
2023/09/22 02:04:43;;;;;;;2.63;1.67;;;17.70;99.90;;;;;;5020100;28;20176;-76
2023/09/22 02:07:10;;;;;;;2.57;1.50;;;17.70;99.90;;;;;;5018314;28;20212;-76
2023/09/22 02:09:36;;;;;;;2.40;1.60;;;17.80;99.90;;;;;;5020549;28;20181;-77
2023/09/22 02:12:02;;;;;;;2.00;1.40;;;17.70;99.90;;;;;;5019478;28;20424;-76
2023/09/22 02:14:27;;;;;;;2.73;1.60;;;17.70;99.90;;;;;;5024153;28;20830;-75
2023/09/22 02:16:53;;;;;;;2.30;1.50;;;17.80;99.90;;;;;;5007159;28;20180;-76
2023/09/22 02:19:18;;;;;;;2.40;1.73;;;17.80;99.90;;;;;;5020637;28;20215;-76
2023/09/22 02:21:45;;;;;;;3.70;1.80;;;17.70;99.90;;;;;;5016538;28;20222;-75
2023/09/22 02:24:11;;;;;;;3.37;1.97;;;17.70;99.90;;;;;;5021690;28;20292;-76
2023/09/22 02:26:36;;;;;;;1.90;1.30;;;17.80;99.90;;;;;;4999149;28;20520;-77
2023/09/22 02:29:02;;;;;;;2.90;1.53;;;17.80;99.90;;;;;;5001393;28;20708;-77
2023/09/22 02:31:28;;;;;;;2.80;1.83;;;17.80;99.90;;;;;;5019334;28;20188;-78
2023/09/22 02:33:54;;;;;;;3.40;1.87;;;17.70;99.90;;;;;;5033487;28;20219;-77
2023/09/22 02:36:19;;;;;;;6.03;1.80;;;17.70;99.90;;;;;;5019508;28;20267;-77
2023/09/22 02:38:46;;;;;;;5.57;1.87;;;17.80;99.90;;;;;;5016260;28;20283;-77
2023/09/22 02:41:14;;;;;;;3.63;1.90;;;17.70;99.90;;;;;;5020008;28;20919;-78
2023/09/22 02:43:39;;;;;;;3.07;1.60;;;17.60;99.90;;;;;;5009216;28;20200;-77
2023/09/22 02:46:05;;;;;;;3.90;1.77;;;17.60;99.90;;;;;;5019621;28;20469;-78
2023/09/22 02:48:31;;;;;;;3.90;1.67;;;17.60;99.90;;;;;;5016234;28;20735;-77
2023/09/22 02:50:57;;;;;;;2.97;2.03;;;17.60;99.90;;;;;;5015332;28;20192;-77
2023/09/22 02:53:22;;;;;;;3.10;1.53;;;17.60;99.90;;;;;;5015523;28;20477;-77
2023/09/22 02:55:48;;;;;;;5.30;1.63;;;17.50;99.90;;;;;;5020369;28;20192;-78
2023/09/22 02:58:14;;;;;;;4.80;1.63;;;17.50;99.90;;;;;;5036657;28;20275;-78
2023/09/22 03:00:44;;;;;;;3.60;1.60;;;17.50;99.90;;;;;;5015959;28;20275;-79
2023/09/22 03:03:12;;;;;;;2.87;1.50;;;17.60;99.90;;;;;;5014995;28;20448;-77
2023/09/22 03:05:38;;;;;;;3.70;1.70;;;17.60;99.90;;;;;;5024352;28;20415;-76
2023/09/22 03:08:04;;;;;;;2.20;1.50;;;17.60;99.90;;;;;;5018766;28;20434;-77
2023/09/22 03:10:33;;;;;;;3.33;1.87;;;17.70;99.90;;;;;;5020767;28;20439;-78
2023/09/22 03:12:59;;;;;;;3.77;1.70;;;17.70;99.90;;;;;;5018532;28;20478;-79
2023/09/22 03:15:24;;;;;;;2.90;1.80;;;17.70;99.90;;;;;;5008125;28;20443;-79
2023/09/22 03:17:50;;;;;;;3.90;1.70;;;17.60;99.90;;;;;;5021598;28;20434;-76
2023/09/22 03:20:17;;;;;;;3.33;1.40;;;17.50;99.90;;;;;;5016596;28;20223;-77
2023/09/22 03:22:43;;;;;;;2.17;1.47;;;17.50;99.90;;;;;;5009686;28;20493;-79
2023/09/22 03:25:10;;;;;;;2.20;1.70;;;17.60;99.90;;;;;;5019567;28;20423;-78
2023/09/22 03:27:36;;;;;;;4.00;2.33;;;17.50;99.90;;;;;;4980983;28;20442;-79
2023/09/22 03:30:07;;;;;;;3.03;1.50;;;17.50;99.90;;;;;;5022063;28;20481;-80
2023/09/22 03:32:33;;;;;;;4.00;1.63;;;17.50;99.90;;;;;;5008037;28;20544;-79
2023/09/22 03:34:59;;;;;;;2.00;1.50;;;17.40;99.90;;;;;;5016953;28;20992;-78
2023/09/22 03:37:28;;;;;;;3.27;1.87;;;17.50;99.90;;;;;;5017905;28;20415;-78
2023/09/22 03:39:55;;;;;;;4.17;1.40;;;17.50;99.90;;;;;;5016103;28;20180;-77
2023/09/22 03:42:20;;;;;;;3.17;1.60;;;17.40;99.90;;;;;;5012537;28;20451;-78
2023/09/22 03:44:47;;;;;;;2.93;1.73;;;17.40;99.90;;;;;;5030853;28;21014;-78
2023/09/22 03:47:12;;;;;;;2.80;1.60;;;17.50;99.90;;;;;;5020314;28;20203;-78
2023/09/22 03:49:38;;;;;;;2.87;2.03;;;17.40;99.90;;;;;;5018566;28;20879;-77
2023/09/22 03:52:04;;;;;;;4.00;1.63;;;17.50;99.90;;;;;;5020988;28;20664;-77
2023/09/22 03:54:30;;;;;;;2.57;1.57;;;17.40;99.90;;;;;;5001033;28;20176;-78
2023/09/22 03:56:56;;;;;;;2.30;1.47;;;17.40;99.90;;;;;;5019762;28;20669;-79
2023/09/22 03:59:22;;;;;;;2.83;1.83;;;17.40;99.90;;;;;;5020110;28;20279;-77
2023/09/22 04:01:47;;;;;;;3.90;1.70;;;17.40;99.90;;;;;;5001084;28;20482;-78
2023/09/22 04:04:14;;;;;;;2.20;1.50;;;17.50;99.90;;;;;;5020284;28;20539;-77
2023/09/22 04:06:39;;;;;;;4.10;1.70;;;17.50;99.90;;;;;;5020976;28;20818;-78
2023/09/22 04:09:06;;;;;;;2.47;1.70;;;17.40;99.90;;;;;;5018738;28;20503;-78
2023/09/22 04:11:32;;;;;;;2.90;1.60;;;17.30;99.90;;;;;;5017947;28;20649;-78
2023/09/22 04:13:58;;;;;;;5.20;1.83;;;17.40;99.90;;;;;;5018407;28;20464;-81
2023/09/22 04:16:23;;;;;;;4.10;1.70;;;17.30;99.90;;;;;;5018666;28;20497;-78
2023/09/22 04:18:54;;;;;;;6.70;1.70;;;17.40;99.90;;;;;;5021774;28;20173;-78
2023/09/22 04:21:21;;;;;;;3.43;1.70;;;17.40;99.90;;;;;;5002491;28;20292;-78
2023/09/22 04:23:51;;;;;;;6.83;2.10;;;17.50;99.90;;;;;;5003103;28;21385;-79
2023/09/22 04:26:17;;;;;;;2.20;1.60;;;17.60;99.90;;;;;;5018179;28;20415;-78
2023/09/22 04:28:45;;;;;;;3.07;1.83;;;17.50;99.90;;;;;;5036176;28;20797;-79
2023/09/22 04:31:12;;;;;;;3.80;1.50;;;17.50;99.90;;;;;;5015263;28;20205;-77
2023/09/22 04:33:38;;;;;;;2.67;1.67;;;17.50;99.90;;;;;;5002833;28;20454;-76
2023/09/22 04:36:04;;;;;;;6.97;4.60;;;17.40;99.90;;;;;;5021587;28;20503;-76
2023/09/22 04:38:29;;;;;;;3.30;2.07;;;17.40;99.90;;;;;;5022648;28;20411;-77
2023/09/22 04:40:59;;;;;;;4.00;2.37;;;17.50;99.90;;;;;;5018207;28;20200;-78
2023/09/22 04:43:25;;;;;;;2.93;1.93;;;17.50;99.90;;;;;;5012401;28;20295;-78
2023/09/22 04:45:50;;;;;;;4.50;1.63;;;17.50;99.90;;;;;;5021107;28;20510;-78
2023/09/22 04:48:16;;;;;;;2.80;2.00;;;17.50;99.90;;;;;;5005859;28;20188;-78
2023/09/22 04:50:42;;;;;;;2.80;1.93;;;17.50;99.90;;;;;;5030468;28;20189;-77
2023/09/22 04:53:08;;;;;;;3.33;1.87;;;17.50;99.90;;;;;;5015041;28;20197;-77
2023/09/22 04:55:37;;;;;;;3.40;1.70;;;17.50;99.90;;;;;;4999293;28;20482;-77
2023/09/22 04:58:03;;;;;;;2.70;1.87;;;17.50;99.90;;;;;;5016594;28;20208;-78
2023/09/22 05:00:33;;;;;;;3.00;2.00;;;17.50;99.90;;;;;;5035188;28;20411;-77
2023/09/22 05:02:59;;;;;;;5.27;1.80;;;17.50;99.90;;;;;;5013617;28;20857;-77
2023/09/22 05:05:25;;;;;;;2.73;2.00;;;17.50;99.90;;;;;;5017126;28;20415;-78
2023/09/22 05:07:51;;;;;;;3.33;2.17;;;17.60;99.90;;;;;;5017311;28;20518;-78
2023/09/22 05:10:17;;;;;;;4.20;1.90;;;17.50;99.90;;;;;;5018315;28;20535;-78
2023/09/22 05:12:43;;;;;;;8.97;2.10;;;17.60;99.90;;;;;;5034498;28;20442;-77
2023/09/22 05:15:09;;;;;;;2.50;1.90;;;17.60;99.90;;;;;;5015424;28;20692;-77
2023/09/22 05:17:35;;;;;;;3.40;1.70;;;17.50;99.90;;;;;;5018537;28;20678;-77
2023/09/22 05:20:04;;;;;;;3.23;2.40;;;17.50;99.90;;;;;;5013279;28;20419;-77
2023/09/22 05:22:30;;;;;;;2.53;1.77;;;17.50;99.90;;;;;;5012263;28;20474;-77
2023/09/22 05:24:56;;;;;;;2.50;1.43;;;17.60;99.90;;;;;;5012943;28;21447;-77
2023/09/22 05:27:24;;;;;;;2.90;1.63;;;17.70;99.90;;;;;;5021152;28;20418;-79
2023/09/22 05:29:53;;;;;;;2.33;1.60;;;17.70;99.90;;;;;;5033714;28;20183;-79
2023/09/22 05:32:19;;;;;;;3.00;1.80;;;17.70;99.90;;;;;;5001746;28;20455;-79
2023/09/22 05:34:44;;;;;;;5.10;2.17;;;17.70;99.90;;;;;;5030588;28;20427;-79
2023/09/22 05:37:11;;;;;;;3.20;1.73;;;17.70;99.90;;;;;;5019120;28;20466;-78
2023/09/22 05:39:37;;;;;;;4.30;2.10;;;17.70;99.90;;;;;;5018805;28;20180;-78
2023/09/22 05:42:04;;;;;;;2.73;1.90;;;17.60;99.90;;;;;;5016592;28;21021;-77
2023/09/22 05:44:29;;;;;;;7.20;2.30;;;17.60;99.90;;;;;;5006556;28;20423;-76
2023/09/22 05:46:55;;;;;;;3.10;1.80;;;17.60;99.90;;;;;;5015695;28;20793;-77
2023/09/22 05:49:21;;;;;;;3.90;1.93;;;17.60;99.90;;;;;;5005191;28;20172;-78
2023/09/22 05:51:48;;;;;;;3.17;2.20;;;17.60;99.90;;;;;;5016527;28;20193;-77
2023/09/22 05:54:14;;;;;;;3.17;2.00;;;17.60;99.90;;;;;;5014007;28;20777;-77
2023/09/22 05:56:40;;;;;;;2.50;1.70;;;17.60;99.90;;;;;;5016604;28;20470;-76
2023/09/22 05:59:06;;;;;;;3.80;2.00;;;17.60;99.90;;;;;;5001165;28;20569;-77
2023/09/22 06:01:36;;;;;;;2.20;1.50;;;17.60;99.90;;;;;;5015465;28;20443;-76
2023/09/22 06:04:04;;;;;;;2.83;2.00;;;17.50;99.90;;;;;;4998029;28;20442;-77
2023/09/22 06:06:32;;;;;;;3.77;1.93;;;17.40;99.90;;;;;;5020195;28;20411;-76
2023/09/22 06:08:58;;;;;;;4.17;1.90;;;17.40;99.90;;;;;;5018622;28;20431;-77
2023/09/22 06:11:24;;;;;;;3.47;2.17;;;17.30;99.90;;;;;;5018230;28;20411;-77
2023/09/22 06:13:50;;;;;;;3.80;2.03;;;17.20;99.90;;;;;;5015693;28;20473;-77
2023/09/22 06:16:16;;;;;;;3.27;2.03;;;17.10;99.90;;;;;;5016562;28;20416;-77
2023/09/22 06:18:42;;;;;;;3.77;1.70;;;17.10;99.90;;;;;;4995380;28;20243;-77
2023/09/22 06:21:07;;;;;;;5.17;2.27;;;17.10;99.90;;;;;;5019470;28;20275;-77
2023/09/22 06:23:33;;;;;;;3.37;1.90;;;17.10;99.90;;;;;;5013084;28;20217;-77
2023/09/22 06:26:10;;;;;;;3.47;2.10;;;17.20;99.90;;;;;;4999863;28;20212;-77
2023/09/22 06:28:37;;;;;;;3.73;1.90;;;17.20;99.90;;;;;;5030308;28;20172;-76
2023/09/22 06:31:04;;;;;;;3.63;1.60;;;17.20;99.90;;;;;;5028267;28;20415;-77
2023/09/22 06:33:30;;;;;;;3.50;1.93;;;17.30;99.90;;;;;;4997911;28;20546;-77
2023/09/22 06:35:57;;;;;;;3.20;1.73;;;17.30;99.90;;;;;;5011652;28;20523;-76
2023/09/22 06:38:23;;;;;;;2.83;1.70;;;17.20;99.90;;;;;;5014494;28;20196;-76
2023/09/22 06:40:50;;;;;;;2.87;1.60;;;17.30;99.90;;;;;;5019931;28;20473;-77
2023/09/22 06:43:16;;;;;;;3.67;2.10;;;17.20;99.90;;;;;;5011301;28;20542;-77
2023/09/22 06:45:42;;;;;;;3.23;1.70;;;17.30;99.90;;;;;;4999972;28;20478;-77
2023/09/22 06:48:09;;;;;;;4.40;2.07;;;17.30;99.90;;;;;;5022874;28;20229;-77
2023/09/22 06:50:35;;;;;;;2.97;1.90;;;17.30;99.90;;;;;;5017871;28;20443;-77
2023/09/22 06:53:02;;;;;;;3.30;1.70;;;17.30;99.90;;;;;;5015445;28;20443;-76
2023/09/22 06:55:30;;;;;;;6.37;2.13;;;17.30;99.90;;;;;;5022916;28;20489;-76
2023/09/22 06:57:59;;;;;;;3.00;1.77;;;17.30;99.90;;;;;;5020577;28;20419;-77
2023/09/22 07:00:31;;;;;;;3.80;2.10;;;17.30;99.90;;;;;;5019063;28;20412;-79
2023/09/22 07:02:56;;;;;;;3.13;1.73;;;17.30;99.90;;;;;;5003487;28;20435;-77
2023/09/22 07:05:22;;;;;;;3.60;2.70;;;17.40;99.90;;;;;;5002874;28;20425;-76
2023/09/22 07:07:49;;;;;;;3.20;1.93;;;17.50;99.90;;;;;;5019413;28;20181;-76
2023/09/22 07:10:16;;;;;;;3.10;2.10;;;17.50;99.90;;;;;;5021174;28;20184;-76
2023/09/22 07:12:42;;;;;;;4.87;2.27;;;17.40;99.90;;;;;;5024281;28;20450;-77
2023/09/22 07:15:09;;;;;;;5.83;2.10;;;17.50;99.90;;;;;;5021130;28;20427;-77
2023/09/22 07:17:34;;;;;;;5.03;2.57;;;17.50;99.90;;;;;;5039346;28;20438;-77
2023/09/22 07:20:01;;;;;;;3.17;1.93;;;17.50;99.90;;;;;;5035870;28;20923;-78
2023/09/22 07:22:30;;;;;;;2.87;1.90;;;17.40;99.90;;;;;;5016052;28;20221;-78
2023/09/22 07:24:56;;;;;;;3.70;1.50;;;17.40;99.90;;;;;;5014483;28;20489;-76
2023/09/22 07:27:23;;;;;;;3.03;1.80;;;17.50;99.90;;;;;;5020033;28;20415;-76
2023/09/22 07:29:50;;;;;;;2.20;1.50;;;17.50;99.90;;;;;;5014369;28;20185;-78
2023/09/22 07:32:16;;;;;;;2.20;1.30;;;17.30;99.90;;;;;;5018372;28;20455;-77
2023/09/22 07:34:42;;;;;;;4.07;1.47;;;17.30;99.90;;;;;;5018836;28;20452;-76
2023/09/22 07:37:11;;;;;;;3.50;1.70;;;17.20;99.90;;;;;;5016921;28;20852;-76
2023/09/22 07:39:38;;;;;;;3.13;1.50;;;17.20;99.90;;;;;;5016415;28;20927;-76
2023/09/22 07:42:04;;;;;;;2.20;1.60;;;17.20;99.90;;;;;;5019730;28;20487;-77
2023/09/22 07:44:30;;;;;;;3.10;1.57;;;17.20;99.90;;;;;;5021773;28;20467;-78
2023/09/22 07:46:58;;;;;;;2.87;1.33;;;17.20;99.90;;;;;;5022712;28;20430;-77
2023/09/22 07:49:25;;;;;;;5.13;1.60;;;17.20;99.90;;;;;;5037145;28;20458;-77
2023/09/22 07:51:51;;;;;;;2.70;1.50;;;17.20;99.90;;;;;;5020182;28;20459;-77
2023/09/22 07:54:18;;;;;;;2.20;1.30;;;17.20;99.90;;;;;;5020636;28;20493;-77
2023/09/22 07:56:46;;;;;;;2.47;1.40;;;17.20;99.90;;;;;;5028577;28;20522;-77
2023/09/22 07:59:14;;;;;;;4.03;1.50;;;17.20;99.90;;;;;;5028058;28;20638;-78
2023/09/22 08:01:42;;;;;;;6.50;3.20;;;17.30;99.90;;;;;;5034312;28;20538;-78
2023/09/22 08:04:09;;;;;;;2.97;1.77;;;17.40;99.90;;;;;;5034629;28;20444;-79
2023/09/22 08:06:34;;;;;;;5.03;1.63;;;17.30;99.90;;;;;;5031040;28;20508;-78
2023/09/22 08:09:00;;;;;;;3.23;1.43;;;17.30;99.90;;;;;;5009112;28;20411;-76
2023/09/22 08:11:26;;;;;;;4.23;1.80;;;17.40;99.90;;;;;;5010535;28;20204;-77
2023/09/22 08:13:51;;;;;;;2.40;1.50;;;17.30;99.90;;;;;;5023757;28;20482;-76
2023/09/22 08:16:18;;;;;;;7.33;1.50;;;17.40;99.90;;;;;;5015131;28;20188;-76
2023/09/22 08:18:44;;;;;;;4.50;1.70;;;17.50;99.90;;;;;;5023471;28;20180;-76
2023/09/22 08:21:11;;;;;;;4.70;2.00;;;17.70;99.90;;;;;;5034320;28;20466;-77
2023/09/22 08:23:36;;;;;;;5.13;2.03;;;17.60;99.90;;;;;;5019695;28;20201;-77
2023/09/22 08:26:05;;;;;;;2.80;1.50;;;17.70;99.90;;;;;;5014785;28;20436;-77
2023/09/22 08:28:32;;;;;;;3.43;1.40;;;17.60;99.90;;;;;;5017512;28;20218;-78
2023/09/22 08:30:58;;;;;;;4.30;2.13;;;17.60;99.90;;;;;;5014902;28;20415;-77
2023/09/22 08:33:24;;;;;;;2.87;1.40;;;17.60;99.90;;;;;;5020122;28;20471;-77
2023/09/22 08:35:50;;;;;;;4.47;1.57;;;17.70;99.90;;;;;;5032577;28;20238;-77
2023/09/22 08:38:15;;;;;;;2.83;1.70;;;17.80;99.90;;;;;;5020223;28;20196;-76
2023/09/22 08:40:46;;;;;;;6.10;1.70;;;17.80;99.90;;;;;;5028413;28;20468;-78
2023/09/22 08:43:11;;;;;;;7.50;1.63;;;17.80;99.90;;;;;;5013167;28;20212;-77
2023/09/22 08:45:38;;;;;;;4.40;2.00;;;17.80;99.90;;;;;;5018509;28;20427;-78
2023/09/22 08:48:04;;;;;;;4.50;2.00;;;17.90;99.90;;;;;;5010852;28;20193;-76
2023/09/22 08:50:31;;;;;;;6.03;1.93;;;17.90;99.90;;;;;;5018502;28;20415;-77
2023/09/22 08:52:57;;;;;;;2.93;1.73;;;17.90;99.90;;;;;;5016563;28;20462;-77
2023/09/22 08:55:23;;;;;;;2.60;1.40;;;17.90;99.90;;;;;;5015544;28;20451;-77
2023/09/22 08:57:51;;;;;;;2.30;1.40;;;18.00;99.90;;;;;;5005114;28;20476;-79
2023/09/22 09:00:26;;;;;;;2.30;1.30;;;18.00;99.90;;;;;;5016139;28;20415;-79
2023/09/22 09:02:55;;;;;;;5.00;1.80;;;18.00;99.90;;;;;;5018412;28;21092;-77
2023/09/22 09:05:22;;;;;;;2.97;1.50;;;17.90;99.90;;;;;;5018121;28;20419;-78
2023/09/22 09:07:49;;;;;;;2.50;1.40;;;17.90;99.90;;;;;;5022211;28;20419;-78
2023/09/22 09:10:24;;;;;;;5.60;2.00;;;17.80;99.90;;;;;;4996848;28;20423;-80
2023/09/22 09:12:50;;;;;;;4.60;1.83;;;17.80;99.90;;;;;;5014821;28;20427;-78
2023/09/22 09:15:16;;;;;;;8.13;2.10;;;17.70;99.90;;;;;;5004175;28;20762;-76
2023/09/22 09:17:41;;;;;;;4.63;1.63;;;17.80;99.90;;;;;;5015898;28;20223;-77
2023/09/22 09:20:07;;;;;;;2.83;1.77;;;17.90;99.90;;;;;;5029096;28;20195;-78
2023/09/22 09:22:38;;;;;;;3.13;2.13;;;18.00;99.90;;;;;;5015637;28;20215;-78
2023/09/22 09:25:10;;;;;;;3.23;1.80;;;18.00;99.90;;;;;;5013349;28;20432;-77
2023/09/22 09:27:36;;;;;;;2.83;1.90;;;18.00;99.90;;;;;;5001194;28;20415;-76
2023/09/22 09:30:11;;;;;;;6.87;3.80;;;18.00;99.90;;;;;;5012166;28;20418;-78
2023/09/22 09:32:38;;;;;;;3.40;2.00;;;18.10;99.90;;;;;;5014888;28;20211;-78
2023/09/22 09:35:04;;;;;;;3.90;1.97;;;18.10;99.90;;;;;;5018311;28;20423;-78
2023/09/22 09:37:30;;;;;;;4.37;1.70;;;18.20;99.90;;;;;;5015537;28;20465;-77
2023/09/22 09:39:58;;;;;;;5.10;1.93;;;18.30;99.90;;;;;;5013589;28;20428;-80
2023/09/22 09:42:26;;;;;;;2.23;1.53;;;18.40;99.90;;;;;;5009988;28;20220;-78
2023/09/22 09:44:53;;;;;;;4.07;1.80;;;18.40;99.90;;;;;;5021155;28;20422;-77
2023/09/22 09:47:35;;;;;;;6.00;2.13;;;18.40;99.90;;;;;;5013840;28;20441;-77
2023/09/22 09:50:04;;;;;;;4.00;2.00;;;18.40;99.90;;;;;;5015981;28;20427;-77
2023/09/22 09:52:39;;;;;;;3.37;1.80;;;18.40;99.90;;;;;;5017906;28;20459;-77
2023/09/22 09:55:12;;;;;;;3.23;2.00;;;18.40;99.90;;;;;;5013962;28;20423;-78
2023/09/22 09:57:42;;;;;;;3.80;1.90;;;18.50;99.90;;;;;;5008070;28;20460;-78
2023/09/22 10:00:28;;;;;;;2.93;1.97;;;18.60;99.90;;;;;;5015542;28;20419;-78
2023/09/22 10:02:58;;;;;;;5.03;2.10;;;18.60;99.90;;;;;;5013936;28;20451;-77
2023/09/22 10:05:24;;;;;;;3.60;2.00;;;18.70;99.90;;;;;;5014175;28;20411;-77
2023/09/22 10:07:51;;;;;;;3.43;2.10;;;18.70;99.90;;;;;;5022544;28;20910;-79
2023/09/22 10:10:19;;;;;;;5.63;1.87;;;18.70;99.90;;;;;;5011169;28;20188;-77
2023/09/22 10:12:45;;;;;;;3.30;1.77;;;18.80;99.90;;;;;;5018722;28;20426;-78
2023/09/22 10:15:11;;;;;;;4.23;1.60;;;18.80;99.90;;;;;;5000403;28;20423;-78
2023/09/22 10:17:38;;;;;;;2.73;1.90;;;18.70;99.90;;;;;;5021412;28;20938;-77
2023/09/22 10:20:06;;;;;;;3.47;2.40;;;18.80;99.90;;;;;;5021437;28;20623;-77
2023/09/22 10:22:33;;;;;;;6.40;2.30;;;18.90;99.90;;;;;;5017752;28;21132;-77
2023/09/22 10:25:13;;;;;;;6.67;2.47;;;19.10;99.90;;;;;;5020577;28;20492;-79
2023/09/22 10:27:59;;;;;;;4.37;2.20;;;19.20;99.90;;;;;;5021893;28;20855;-77
2023/09/22 10:30:45;;;;;;;2.10;1.40;;;19.40;99.90;;;;;;5036602;28;20418;-78
2023/09/22 10:33:22;;;;;;;2.40;1.50;;;19.50;99.90;;;;;;5019367;28;20471;-77
2023/09/22 10:35:49;;;;;;;2.73;1.83;;;19.60;99.90;;;;;;5002734;28;20443;-78
2023/09/22 10:38:15;;;;;;;3.30;1.87;;;19.60;99.90;;;;;;4999188;28;20420;-77
2023/09/22 10:40:59;;;;;;;3.07;1.63;;;19.70;99.90;;;;;;5014266;28;20470;-78
2023/09/22 10:43:25;;;;;;;2.23;1.77;;;19.70;99.90;;;;;;5016812;28;20442;-78
2023/09/22 10:45:51;;;;;;;3.77;1.90;;;19.70;99.90;;;;;;5035351;28;21000;-78
2023/09/22 10:48:18;;;;;;;5.70;1.87;;;19.60;99.90;;;;;;5014787;28;20476;-77
2023/09/22 10:50:49;;;;;;;3.07;1.70;;;19.60;99.90;;;;;;5018697;28;20958;-79
2023/09/22 10:53:15;;;;;;;5.87;1.80;;;19.60;99.90;;;;;;5015210;28;20461;-77
2023/09/22 10:55:43;;;;;;;2.30;1.50;;;19.70;99.90;;;;;;5023399;28;20431;-77
2023/09/22 10:58:14;;;;;;;2.20;1.60;;;19.90;99.90;;;;;;5017425;28;20645;-77
2023/09/22 11:00:53;;;;;;;2.60;1.50;;;20.00;99.90;;;;;;5022842;28;20415;-77
2023/09/22 11:03:19;;;;;;;2.20;1.50;;;19.90;99.90;;;;;;5019416;28;21013;-78
2023/09/22 11:05:55;;;;;;;2.67;1.50;;;19.90;99.90;;;;;;5014695;28;20419;-77
2023/09/22 11:08:21;;;;;;;2.60;1.60;;;19.80;99.90;;;;;;5012542;28;20181;-77
2023/09/22 11:10:51;;;;;;;3.77;1.63;;;19.90;99.90;;;;;;5019087;28;20445;-77
2023/09/22 11:13:18;;;;;;;4.53;1.90;;;20.00;99.90;;;;;;5012186;28;20193;-78
2023/09/22 11:15:53;;;;;;;3.80;1.77;;;19.90;99.90;;;;;;5018358;28;20413;-78
2023/09/22 11:18:25;;;;;;;2.03;1.50;;;20.00;99.90;;;;;;5019278;28;20438;-78
2023/09/22 11:21:11;;;;;;;2.83;1.77;;;20.20;99.90;;;;;;5023087;28;20528;-78
2023/09/22 11:23:39;;;;;;;3.60;1.40;;;20.30;99.90;;;;;;5022193;28;20438;-78
2023/09/22 11:26:10;;;;;;;5.00;1.60;;;20.40;99.90;;;;;;5017710;28;21115;-78
2023/09/22 11:28:45;;;;;;;2.47;1.50;;;20.50;99.90;;;;;;5018558;28;20470;-77
2023/09/22 11:31:20;;;;;;;2.90;1.60;;;20.70;99.90;;;;;;5008125;28;20454;-78
2023/09/22 11:34:03;;;;;;;3.77;1.67;;;20.70;99.90;;;;;;5015934;28;20903;-78
2023/09/22 11:36:45;;;;;;;2.80;1.50;;;20.80;99.90;;;;;;5030671;28;20958;-77
2023/09/22 11:39:26;;;;;;;4.80;2.10;;;21.00;99.90;;;;;;5010431;28;20889;-78
2023/09/22 11:41:52;;;;;;;3.53;1.70;;;21.20;99.90;;;;;;5019414;28;20949;-77
2023/09/22 11:44:18;;;;;;;3.70;1.80;;;21.30;99.90;;;;;;5013635;28;20465;-77
2023/09/22 11:46:48;;;;;;;2.30;1.70;;;21.30;99.90;;;;;;5017263;28;20428;-77
2023/09/22 11:49:13;;;;;;;2.47;1.53;;;21.30;99.90;;;;;;5018362;28;20176;-77
2023/09/22 11:51:56;;;;;;;2.77;1.80;;;21.20;99.90;;;;;;5020890;28;20423;-78
2023/09/22 11:54:29;;;;;;;3.30;1.90;;;21.10;99.90;;;;;;5000094;28;20184;-78
2023/09/22 11:56:58;;;;;;;2.67;1.70;;;21.10;99.90;;;;;;5001676;28;20412;-77
2023/09/22 11:59:31;;;;;;;4.10;1.80;;;21.10;99.90;;;;;;5015176;28;20526;-77
2023/09/22 12:01:57;;;;;;;3.17;2.00;;;21.50;99.90;;;;;;5021466;28;20523;-77
2023/09/22 12:04:23;;;;;;;2.40;1.90;;;21.50;99.90;;;;;;5005180;28;20450;-77
2023/09/22 12:06:49;;;;;;;3.10;2.10;;;21.30;99.90;;;;;;5017262;28;20934;-78
2023/09/22 12:09:16;;;;;;;2.60;1.90;;;21.20;99.90;;;;;;5014447;28;20183;-78
2023/09/22 12:11:43;;;;;;;2.83;1.93;;;21.20;99.90;;;;;;5021998;28;20465;-79
2023/09/22 12:14:12;;;;;;;2.83;1.83;;;21.20;99.90;;;;;;5000721;28;20527;-78
2023/09/22 12:16:41;;;;;;;2.90;1.83;;;21.20;99.90;;;;;;5018636;28;20509;-78
2023/09/22 12:19:07;;;;;;;4.23;2.07;;;21.10;99.90;;;;;;5015825;28;20431;-77
2023/09/22 12:21:34;;;;;;;2.87;1.70;;;20.80;99.90;;;;;;5035442;28;20532;-78
2023/09/22 12:24:00;;;;;;;3.70;1.87;;;21.00;99.90;;;;;;5017067;28;20436;-79
2023/09/22 12:26:25;;;;;;;3.10;1.90;;;21.50;99.90;;;;;;5013972;28;20438;-79
2023/09/22 12:28:51;;;;;;;3.60;1.80;;;21.70;99.90;;;;;;5018707;28;20169;-79
2023/09/22 12:31:18;;;;;;;2.83;1.90;;;22.50;99.90;;;;;;5018171;28;20177;-79
2023/09/22 12:33:47;;;;;;;2.37;1.77;;;22.90;99.90;;;;;;5022164;28;20255;-78
2023/09/22 12:36:16;;;;;;;3.90;2.13;;;23.10;99.90;;;;;;5010197;28;20951;-79
2023/09/22 12:38:42;;;;;;;3.70;3.40;;;23.60;99.90;;;;;;5032801;28;20431;-77
2023/09/22 12:41:09;;;;;;;3.50;2.13;;;23.90;99.90;;;;;;5021061;28;21104;-78
2023/09/22 12:43:36;;;;;;;3.43;2.10;;;24.50;99.90;;;;;;5024713;28;20871;-78
2023/09/22 12:46:01;;;;;;;2.90;1.90;;;24.90;99.90;;;;;;5014636;28;20499;-79
2023/09/22 12:48:27;;;;;;;2.93;1.90;;;25.20;99.90;;;;;;5010661;28;20836;-79